createdAt,value
2018-01-26T00:01:05.657Z,9.10
2018-01-26T00:03:33.883Z,9.00
2018-01-26T00:06:01.315Z,9.00
2018-01-26T00:08:28.783Z,9.00
2018-01-26T00:10:56.242Z,9.00
2018-01-26T00:13:23.727Z,9.10
2018-01-26T00:15:51.215Z,9.10
2018-01-26T00:18:19.489Z,9.00
2018-01-26T00:20:46.929Z,9.00
2018-01-26T00:23:15.161Z,8.90
2018-01-26T00:25:42.599Z,8.90
2018-01-26T00:28:10.125Z,8.90
2018-01-26T00:30:38.322Z,8.80
2018-01-26T00:33:05.755Z,8.70
2018-01-26T00:35:33.973Z,8.60
2018-01-26T00:38:01.484Z,8.60
2018-01-26T00:40:29.773Z,8.50
2018-01-26T00:42:57.217Z,8.50
2018-01-26T00:45:25.436Z,8.40
2018-01-26T00:47:52.873Z,8.40
2018-01-26T00:50:20.334Z,8.50
2018-01-26T00:52:47.778Z,8.50
2018-01-26T00:55:15.343Z,8.40
2018-01-26T00:57:42.788Z,8.40
2018-01-26T01:00:10.354Z,8.40
2018-01-26T01:02:37.787Z,8.40
2018-01-26T01:05:06.003Z,8.40
2018-01-26T01:07:33.438Z,8.30
2018-01-26T01:10:00.876Z,8.30
2018-01-26T01:12:29.185Z,8.20
2018-01-26T01:14:56.628Z,8.20
2018-01-26T01:17:24.097Z,8.30
2018-01-26T01:19:51.522Z,8.10
2018-01-26T01:22:18.992Z,8.20
2018-01-26T01:24:46.435Z,8.20
2018-01-26T01:27:13.905Z,8.20
2018-01-26T01:29:41.339Z,8.20
2018-01-26T01:32:10.152Z,8.30
2018-01-26T01:34:37.590Z,8.30
2018-01-26T01:37:05.046Z,8.30
2018-01-26T01:39:32.492Z,8.30
2018-01-26T01:42:00.699Z,8.30
2018-01-26T01:44:28.139Z,8.30
2018-01-26T01:46:55.582Z,8.20
2018-01-26T01:49:23.130Z,8.30
2018-01-26T01:51:51.390Z,8.30
2018-01-26T01:54:18.839Z,8.30
2018-01-26T01:56:46.274Z,8.30
2018-01-26T01:59:13.735Z,8.20
2018-01-26T02:01:41.172Z,8.20
2018-01-26T02:04:08.628Z,8.20
2018-01-26T02:06:36.057Z,8.20
2018-01-26T02:09:03.520Z,8.30
2018-01-26T02:11:30.970Z,8.30
2018-01-26T02:13:58.441Z,8.40
2018-01-26T02:16:25.884Z,8.40
2018-01-26T02:18:53.322Z,8.30
2018-01-26T02:21:20.778Z,8.40
2018-01-26T02:23:48.218Z,8.40
2018-01-26T02:26:16.439Z,8.40
2018-01-26T02:28:43.871Z,8.40
2018-01-26T02:31:11.328Z,8.40
2018-01-26T02:33:38.767Z,8.40
2018-01-26T02:36:07.214Z,8.30
2018-01-26T02:38:34.638Z,8.20
2018-01-26T02:41:02.100Z,8.20
2018-01-26T02:43:29.526Z,8.30
2018-01-26T02:45:56.986Z,8.30
2018-01-26T02:48:24.455Z,8.40
2018-01-26T02:50:51.913Z,8.40
2018-01-26T02:53:19.333Z,8.20
2018-01-26T02:55:47.594Z,8.40
2018-01-26T02:58:15.665Z,8.40
2018-01-26T03:00:43.080Z,8.50
2018-01-26T03:03:10.543Z,8.40
2018-01-26T03:05:37.997Z,8.30
2018-01-26T03:08:05.530Z,8.20
2018-01-26T03:10:32.964Z,8.10
2018-01-26T03:13:01.159Z,8.30
2018-01-26T03:15:28.619Z,8.30
2018-01-26T03:17:56.081Z,8.40
2018-01-26T03:20:23.527Z,8.50
2018-01-26T03:22:51.121Z,8.50
2018-01-26T03:25:18.586Z,8.60
2018-01-26T03:27:46.036Z,8.60
2018-01-26T03:30:13.502Z,8.50
2018-01-26T03:32:40.951Z,8.50
2018-01-26T03:35:08.535Z,8.40
2018-01-26T03:37:35.979Z,8.30
2018-01-26T03:40:03.438Z,8.30
2018-01-26T03:42:30.892Z,8.30
2018-01-26T03:44:58.351Z,8.40
2018-01-26T03:47:25.819Z,8.50
2018-01-26T03:49:53.267Z,8.50
2018-01-26T03:52:26.357Z,8.50
2018-01-26T03:54:53.791Z,8.60
2018-01-26T03:57:22.008Z,8.60
2018-01-26T03:59:50.210Z,8.50
2018-01-26T04:02:17.660Z,8.50
2018-01-26T04:04:45.103Z,8.50
2018-01-26T04:07:12.577Z,8.40
2018-01-26T04:09:40.025Z,8.50
2018-01-26T04:12:07.490Z,8.50
2018-01-26T04:14:34.926Z,8.50
2018-01-26T04:17:02.392Z,8.40
2018-01-26T04:19:29.832Z,8.30
2018-01-26T04:21:57.335Z,8.30
2018-01-26T04:24:24.797Z,8.40
2018-01-26T04:26:52.231Z,8.40
2018-01-26T04:29:19.710Z,8.30
2018-01-26T04:31:47.405Z,8.20
2018-01-26T04:34:15.651Z,8.30
2018-01-26T04:36:43.074Z,8.30
2018-01-26T04:39:10.534Z,8.30
2018-01-26T04:41:37.975Z,8.30
2018-01-26T04:44:05.423Z,8.30
2018-01-26T04:46:32.903Z,8.30
2018-01-26T04:49:00.343Z,8.40
2018-01-26T04:51:27.821Z,8.30
2018-01-26T04:53:55.271Z,8.40
2018-01-26T04:56:22.712Z,8.40
2018-01-26T04:58:50.188Z,8.40
2018-01-26T05:01:17.618Z,8.40
2018-01-26T05:03:45.077Z,8.40
2018-01-26T05:06:12.523Z,8.30
2018-01-26T05:08:39.976Z,8.30
2018-01-26T05:11:07.437Z,8.20
2018-01-26T05:13:34.910Z,8.20
2018-01-26T05:16:02.348Z,8.30
2018-01-26T05:18:29.825Z,8.40
2018-01-26T05:20:57.880Z,8.40
2018-01-26T05:23:25.311Z,8.30
2018-01-26T05:25:53.531Z,8.20
2018-01-26T05:28:20.964Z,8.20
2018-01-26T05:30:48.449Z,8.30
2018-01-26T05:33:15.878Z,8.30
2018-01-26T05:35:43.339Z,8.30
2018-01-26T05:38:10.819Z,8.30
2018-01-26T05:40:38.283Z,8.30
2018-01-26T05:43:05.727Z,8.40
2018-01-26T05:45:33.267Z,8.30
2018-01-26T05:48:00.745Z,8.20
2018-01-26T05:50:28.196Z,8.20
2018-01-26T05:52:55.684Z,8.30
2018-01-26T05:55:23.117Z,8.40
2018-01-26T05:57:50.612Z,8.30
2018-01-26T06:00:18.811Z,8.20
2018-01-26T06:02:46.277Z,8.20
2018-01-26T06:05:13.702Z,8.10
2018-01-26T06:07:41.942Z,8.20
2018-01-26T06:10:10.153Z,8.30
2018-01-26T06:12:38.369Z,8.40
2018-01-26T06:15:05.812Z,8.40
2018-01-26T06:17:33.870Z,8.40
2018-01-26T06:20:01.306Z,8.30
2018-01-26T06:22:28.744Z,8.40
2018-01-26T06:24:56.983Z,8.40
2018-01-26T06:27:25.251Z,8.40
2018-01-26T06:29:52.705Z,8.40
2018-01-26T06:32:20.165Z,8.40
2018-01-26T06:34:47.617Z,8.40
2018-01-26T06:37:15.066Z,8.50
2018-01-26T06:39:42.532Z,8.40
2018-01-26T06:42:09.969Z,8.40
2018-01-26T06:44:37.537Z,8.30
2018-01-26T06:47:04.962Z,8.30
2018-01-26T06:49:33.206Z,8.40
2018-01-26T06:52:00.625Z,8.40
2018-01-26T06:54:28.085Z,8.50
2018-01-26T06:56:55.578Z,8.50
2018-01-26T06:59:23.139Z,8.40
2018-01-26T07:01:50.583Z,8.40
2018-01-26T07:04:18.023Z,8.40
2018-01-26T07:06:45.502Z,8.40
2018-01-26T07:09:12.958Z,8.30
2018-01-26T07:11:40.401Z,8.20
2018-01-26T07:14:07.894Z,8.20
2018-01-26T07:16:36.322Z,8.20
2018-01-26T07:19:03.808Z,8.20
2018-01-26T07:21:31.263Z,8.10
2018-01-26T07:23:58.702Z,8.20
2018-01-26T07:26:26.151Z,8.20
2018-01-26T07:28:54.407Z,8.10
2018-01-26T07:31:21.838Z,8.10
2018-01-26T07:33:49.297Z,8.10
2018-01-26T07:36:16.762Z,8.10
2018-01-26T07:38:44.206Z,8.10
2018-01-26T07:41:11.642Z,8.10
2018-01-26T07:43:39.920Z,8.10
2018-01-26T07:46:07.361Z,8.10
2018-01-26T07:48:34.814Z,8.10
2018-01-26T07:51:02.277Z,8.10
2018-01-26T07:53:29.714Z,8.10
2018-01-26T07:55:57.170Z,8.10
2018-01-26T07:58:24.619Z,8.00
2018-01-26T08:00:52.067Z,8.10
2018-01-26T08:03:19.567Z,8.10
2018-01-26T08:05:47.022Z,8.20
2018-01-26T08:08:15.286Z,8.40
2018-01-26T08:10:42.735Z,8.40
2018-01-26T08:13:10.237Z,8.20
2018-01-26T08:15:37.638Z,8.30
2018-01-26T08:18:05.113Z,8.20
2018-01-26T08:20:32.584Z,8.20
2018-01-26T08:23:00.798Z,8.30
2018-01-26T08:25:28.249Z,8.30
2018-01-26T08:27:55.706Z,8.40
2018-01-26T08:30:23.186Z,8.40
2018-01-26T08:32:51.229Z,8.30
2018-01-26T08:35:22.836Z,8.40
2018-01-26T08:37:51.040Z,8.50
2018-01-26T08:40:18.512Z,8.50
2018-01-26T08:42:45.993Z,8.50
2018-01-26T08:45:13.428Z,8.50
2018-01-26T08:47:40.902Z,8.50
2018-01-26T08:50:08.454Z,8.70
2018-01-26T08:52:36.502Z,8.70
2018-01-26T08:55:03.960Z,8.70
2018-01-26T08:57:31.427Z,8.90
2018-01-26T08:59:58.875Z,9.10
2018-01-26T09:02:26.355Z,9.00
2018-01-26T09:04:53.812Z,9.10
2018-01-26T09:07:21.759Z,9.00
2018-01-26T09:09:49.218Z,9.00
2018-01-26T09:12:16.694Z,9.10
2018-01-26T09:14:44.200Z,9.20
2018-01-26T09:17:11.779Z,9.50
2018-01-26T09:19:40.016Z,9.90
2018-01-26T09:22:08.315Z,10.20
2018-01-26T09:24:35.828Z,10.10
2018-01-26T09:27:03.276Z,10.50
2018-01-26T09:29:30.766Z,10.70
2018-01-26T09:31:59.048Z,10.70
2018-01-26T09:34:27.289Z,10.50
2018-01-26T09:36:54.778Z,10.50
2018-01-26T09:39:22.987Z,10.40
2018-01-26T09:41:50.435Z,10.30
2018-01-26T09:44:17.935Z,10.30
2018-01-26T09:46:45.391Z,10.30
2018-01-26T09:49:12.879Z,10.40
2018-01-26T09:51:40.337Z,10.60
2018-01-26T09:54:07.809Z,11.10
2018-01-26T09:56:35.252Z,11.40
2018-01-26T09:59:02.736Z,11.70
2018-01-26T10:01:30.194Z,11.90
2018-01-26T10:03:57.799Z,12.30
2018-01-26T10:06:25.997Z,12.60
2018-01-26T10:08:53.447Z,12.20
2018-01-26T10:11:20.921Z,12.10
2018-01-26T10:13:48.456Z,11.70
2018-01-26T10:16:16.720Z,11.40
2018-01-26T10:18:44.176Z,11.30
2018-01-26T10:21:12.447Z,11.30
2018-01-26T10:23:39.897Z,11.30
2018-01-26T10:26:07.395Z,11.30
2018-01-26T10:28:34.845Z,11.30
2018-01-26T10:31:02.337Z,11.40
2018-01-26T10:33:29.875Z,11.40
2018-01-26T10:35:57.347Z,11.30
2018-01-26T10:38:24.810Z,11.30
2018-01-26T10:40:52.252Z,11.20
2018-01-26T10:43:20.499Z,11.00
2018-01-26T10:45:47.955Z,11.00
2018-01-26T10:48:16.170Z,11.10
2018-01-26T10:50:44.000Z,11.10
2018-01-26T10:53:11.472Z,11.00
2018-01-26T10:55:38.919Z,11.10
2018-01-26T10:58:06.384Z,11.10
2018-01-26T11:00:33.844Z,11.00
2018-01-26T11:03:01.304Z,11.00
2018-01-26T11:05:28.791Z,11.10
2018-01-26T11:07:56.259Z,11.10
2018-01-26T11:10:24.501Z,10.90
2018-01-26T11:12:52.025Z,10.90
2018-01-26T11:15:19.484Z,11.00
2018-01-26T11:17:46.948Z,10.90
2018-01-26T11:20:18.970Z,11.00
2018-01-26T11:22:46.443Z,11.30
2018-01-26T11:25:13.967Z,11.60
2018-01-26T11:27:45.424Z,11.80
2018-01-26T11:30:12.881Z,12.20
2018-01-26T11:32:41.124Z,12.20
2018-01-26T11:35:08.570Z,12.10
2018-01-26T11:37:36.042Z,12.00
2018-01-26T11:40:03.494Z,12.00
2018-01-26T11:42:31.727Z,11.80
2018-01-26T11:44:59.207Z,11.70
2018-01-26T11:47:26.687Z,11.50
2018-01-26T11:49:54.150Z,11.30
2018-01-26T11:52:21.679Z,11.30
2018-01-26T11:54:49.108Z,11.10
2018-01-26T11:57:16.600Z,11.00
2018-01-26T11:59:44.073Z,10.90
2018-01-26T12:02:11.520Z,10.90
2018-01-26T12:04:39.475Z,11.00
2018-01-26T12:07:06.936Z,11.00
2018-01-26T12:09:34.411Z,11.00
2018-01-26T12:12:01.854Z,11.10
2018-01-26T12:14:29.443Z,10.90
2018-01-26T12:16:57.704Z,10.80
2018-01-26T12:19:25.151Z,10.80
2018-01-26T12:21:58.588Z,10.60
2018-01-26T12:24:26.801Z,10.60
2018-01-26T12:26:55.727Z,10.60
2018-01-26T12:29:23.156Z,10.60
2018-01-26T12:31:50.651Z,10.60
2018-01-26T12:34:18.885Z,10.60
2018-01-26T12:36:46.353Z,10.60
2018-01-26T12:39:13.841Z,10.70
2018-01-26T12:41:42.074Z,10.80
2018-01-26T12:44:09.552Z,10.80
2018-01-26T12:46:37.009Z,10.90
2018-01-26T12:49:04.450Z,11.00
2018-01-26T12:51:31.933Z,11.00
2018-01-26T12:53:59.635Z,10.90
2018-01-26T12:56:27.837Z,10.80
2018-01-26T12:58:55.303Z,10.70
2018-01-26T13:01:22.755Z,10.90
2018-01-26T13:03:50.235Z,10.90
2018-01-26T13:06:18.526Z,10.90
2018-01-26T13:08:46.007Z,10.90
2018-01-26T13:11:13.482Z,10.90
2018-01-26T13:13:40.943Z,10.80
2018-01-26T13:16:08.422Z,10.60
2018-01-26T13:18:35.956Z,10.60
2018-01-26T13:21:03.448Z,10.50
2018-01-26T13:23:30.897Z,10.50
2018-01-26T13:25:58.370Z,10.50
2018-01-26T13:28:26.601Z,10.40
2018-01-26T13:30:54.066Z,10.40
2018-01-26T13:33:21.579Z,10.50
2018-01-26T13:35:49.050Z,10.50
2018-01-26T13:38:16.520Z,10.40
2018-01-26T13:40:43.980Z,10.60
2018-01-26T13:43:11.443Z,10.90
2018-01-26T13:45:38.951Z,11.20
2018-01-26T13:48:07.209Z,11.20
2018-01-26T13:50:34.671Z,11.20
2018-01-26T13:53:02.911Z,11.00
2018-01-26T13:55:31.143Z,10.80
2018-01-26T13:57:59.402Z,10.80
2018-01-26T14:00:27.704Z,10.60
2018-01-26T14:02:55.107Z,10.60
2018-01-26T14:05:22.577Z,10.50
2018-01-26T14:07:50.912Z,10.40
2018-01-26T14:10:19.080Z,10.40
2018-01-26T14:12:46.554Z,10.40
2018-01-26T14:15:14.004Z,10.30
2018-01-26T14:17:41.498Z,10.30
2018-01-26T14:20:09.710Z,10.40
2018-01-26T14:22:37.175Z,10.40
2018-01-26T14:25:04.635Z,10.40
2018-01-26T14:27:32.124Z,10.40
2018-01-26T14:29:59.613Z,10.40
2018-01-26T14:32:27.848Z,10.30
2018-01-26T14:34:55.331Z,10.30
2018-01-26T14:37:22.773Z,10.30
2018-01-26T14:39:50.253Z,10.30
2018-01-26T14:42:18.466Z,10.10
2018-01-26T14:44:46.030Z,10.10
2018-01-26T14:47:13.477Z,10.10
2018-01-26T14:49:40.932Z,10.10
2018-01-26T14:52:08.385Z,10.10
2018-01-26T14:54:35.949Z,10.20
2018-01-26T14:57:03.459Z,10.20
2018-01-26T14:59:31.691Z,10.00
2018-01-26T15:02:03.064Z,10.00
2018-01-26T15:04:30.507Z,9.90
2018-01-26T15:06:57.989Z,9.90
2018-01-26T15:09:26.209Z,9.90
2018-01-26T15:11:53.704Z,9.90
2018-01-26T15:14:21.950Z,9.80
2018-01-26T15:16:49.452Z,9.70
2018-01-26T15:19:16.929Z,9.80
2018-01-26T15:21:44.435Z,9.80
2018-01-26T15:24:11.913Z,9.60
2018-01-26T15:26:39.497Z,9.70
2018-01-26T15:29:07.756Z,9.70
2018-01-26T15:31:36.003Z,9.60
2018-01-26T15:34:03.463Z,9.60
2018-01-26T15:36:30.919Z,9.60
2018-01-26T15:38:58.405Z,9.60
2018-01-26T15:41:26.661Z,9.60
2018-01-26T15:43:54.132Z,9.60
2018-01-26T15:46:22.337Z,9.60
2018-01-26T15:48:49.863Z,9.50
2018-01-26T15:51:17.321Z,9.60
2018-01-26T15:53:45.551Z,9.70
2018-01-26T15:56:13.028Z,9.60
2018-01-26T15:58:40.668Z,9.60
2018-01-26T16:01:08.188Z,9.50
2018-01-26T16:03:35.633Z,9.50
2018-01-26T16:06:03.880Z,9.40
2018-01-26T16:08:31.366Z,9.40
2018-01-26T16:10:59.624Z,9.40
2018-01-26T16:13:27.856Z,9.50
2018-01-26T16:16:04.185Z,9.50
2018-01-26T16:18:31.648Z,9.50
2018-01-26T16:21:03.051Z,9.40
2018-01-26T16:23:30.518Z,9.40
2018-01-26T16:25:58.034Z,9.30
2018-01-26T16:28:25.526Z,9.30
2018-01-26T16:30:52.986Z,9.40
2018-01-26T16:33:20.435Z,9.30
2018-01-26T16:35:47.903Z,9.30
2018-01-26T16:38:16.135Z,9.40
2018-01-26T16:40:43.624Z,9.40
2018-01-26T16:43:11.854Z,9.40
2018-01-26T16:45:39.421Z,9.40
2018-01-26T16:48:07.712Z,9.50
2018-01-26T16:50:36.015Z,9.50
2018-01-26T16:53:04.267Z,9.50
2018-01-26T16:55:32.905Z,9.50
2018-01-26T16:58:00.381Z,9.50
2018-01-26T17:00:27.955Z,9.20
2018-01-26T17:02:55.427Z,9.20
2018-01-26T17:05:22.867Z,9.20
2018-01-26T17:07:50.511Z,9.10
2018-01-26T17:10:18.017Z,9.30
2018-01-26T17:12:45.480Z,9.30
2018-01-26T17:15:13.693Z,9.20
2018-01-26T17:17:41.159Z,9.20
2018-01-26T17:20:08.650Z,9.00
2018-01-26T17:22:36.098Z,9.10
2018-01-26T17:25:03.610Z,9.00
2018-01-26T17:27:31.057Z,9.10
2018-01-26T17:29:58.511Z,9.20
2018-01-26T17:32:25.994Z,9.10
2018-01-26T17:34:54.598Z,9.20
2018-01-26T17:37:22.074Z,9.10
2018-01-26T17:39:49.527Z,9.20
2018-01-26T17:42:17.001Z,9.20
2018-01-26T17:44:45.244Z,9.20
2018-01-26T17:47:12.703Z,9.20
2018-01-26T17:49:40.253Z,9.20
2018-01-26T17:52:07.690Z,9.20
2018-01-26T17:54:35.144Z,9.20
2018-01-26T17:57:03.191Z,9.30
2018-01-26T17:59:30.639Z,9.30
2018-01-26T18:01:58.949Z,9.30
2018-01-26T18:04:27.160Z,9.20
2018-01-26T18:06:54.711Z,9.20
2018-01-26T18:09:42.853Z,9.20
2018-01-26T18:12:10.415Z,9.10
2018-01-26T18:14:38.166Z,9.20
2018-01-26T18:17:06.401Z,9.30
2018-01-26T18:19:33.901Z,9.30
2018-01-26T18:22:01.339Z,9.20
2018-01-26T18:24:28.847Z,9.10
2018-01-26T18:26:56.329Z,9.10
2018-01-26T18:29:23.863Z,9.00
2018-01-26T18:31:51.355Z,9.00
2018-01-26T18:34:18.817Z,8.90
2018-01-26T18:36:50.638Z,9.00
2018-01-26T18:39:18.152Z,9.00
2018-01-26T18:41:46.370Z,9.00
2018-01-26T18:44:13.880Z,9.00
2018-01-26T18:46:45.537Z,9.00
2018-01-26T18:49:13.035Z,9.10
2018-01-26T18:51:40.507Z,9.00
2018-01-26T18:54:08.016Z,8.80
2018-01-26T18:56:35.531Z,8.80
2018-01-26T18:59:03.850Z,9.00
2018-01-26T19:01:31.336Z,9.00
2018-01-26T19:03:58.793Z,9.00
2018-01-26T19:06:26.259Z,9.00
2018-01-26T19:08:56.139Z,9.00
2018-01-26T19:11:23.612Z,9.00
2018-01-26T19:13:51.866Z,9.00
2018-01-26T19:16:19.313Z,9.00
2018-01-26T19:18:46.746Z,9.00
2018-01-26T19:21:14.247Z,9.00
2018-01-26T19:23:41.712Z,9.00
2018-01-26T19:26:09.206Z,8.90
2018-01-26T19:28:36.664Z,8.80
2018-01-26T19:40:44.190Z,8.80
2018-01-26T19:43:11.743Z,8.60
2018-01-26T19:45:39.251Z,8.60
2018-01-26T19:48:07.587Z,8.50
2018-01-26T19:50:36.128Z,8.50
2018-01-26T19:53:04.435Z,8.50
2018-01-26T19:55:32.669Z,8.50
2018-01-26T19:58:01.124Z,8.50
2018-01-26T20:00:29.506Z,8.30
2018-01-26T20:03:05.511Z,8.30
2018-01-26T20:05:47.448Z,8.40
2018-01-26T20:08:39.180Z,8.20
2018-01-26T20:11:06.671Z,8.10
2018-01-26T20:13:34.172Z,8.00
2018-01-26T20:16:01.626Z,8.00
2018-01-26T20:18:29.821Z,8.00
2018-01-26T20:20:57.348Z,8.00
2018-01-26T20:23:24.866Z,8.00
2018-01-26T20:25:52.606Z,8.10
2018-01-26T20:28:20.150Z,8.20
2018-01-26T20:30:48.400Z,8.20
2018-01-26T20:33:21.409Z,8.10
2018-01-26T20:35:50.229Z,8.20
2018-01-26T20:38:17.781Z,8.30
2018-01-26T20:40:47.917Z,8.40
2018-01-26T20:43:27.971Z,8.40
2018-01-26T20:46:06.836Z,8.50
2018-01-26T20:48:34.343Z,8.50
2018-01-26T20:51:02.551Z,8.50
2018-01-26T20:53:50.885Z,8.50
2018-01-26T20:56:18.576Z,8.50
2018-01-26T20:59:01.460Z,8.40
2018-01-26T21:01:29.313Z,8.40
2018-01-26T21:03:56.815Z,8.30
2018-01-26T21:09:41.454Z,8.30
2018-01-26T21:12:09.974Z,8.20
2018-01-26T21:27:05.613Z,8.00
2018-01-26T21:29:36.429Z,8.20
2018-01-26T21:32:12.462Z,8.00
2018-01-26T21:34:41.208Z,7.90
2018-01-26T21:37:08.733Z,7.90
2018-01-26T21:39:40.361Z,8.00
2018-01-26T21:42:07.860Z,8.10
2018-01-26T21:44:35.337Z,8.20
2018-01-26T21:47:07.707Z,8.20
2018-01-26T21:49:35.922Z,8.20
2018-01-26T21:52:03.463Z,8.10
2018-01-26T21:54:53.347Z,8.10
2018-01-26T21:57:45.118Z,8.10
2018-01-26T22:00:12.895Z,8.00
2018-01-26T22:02:41.213Z,8.10
2018-01-26T22:05:14.320Z,8.00
2018-01-26T22:07:42.438Z,7.80
2018-01-26T22:10:09.926Z,7.80
2018-01-26T22:12:37.455Z,7.90
2018-01-26T22:15:05.695Z,7.70
2018-01-26T22:17:33.158Z,7.70
2018-01-26T22:20:00.641Z,7.70
2018-01-26T22:22:28.884Z,7.80
2018-01-26T22:27:30.149Z,8.00
2018-01-26T22:29:57.636Z,7.90
2018-01-26T22:32:25.840Z,7.80
2018-01-26T22:34:53.321Z,7.80
2018-01-26T22:37:20.885Z,7.70
2018-01-26T22:39:48.255Z,7.70
2018-01-26T22:42:15.720Z,7.80
2018-01-26T22:44:43.174Z,7.80
2018-01-26T22:47:10.606Z,8.00
2018-01-26T22:49:38.066Z,8.00
2018-01-26T22:52:05.517Z,8.00
2018-01-26T22:54:32.973Z,7.90
2018-01-26T22:57:00.439Z,7.90
2018-01-26T22:59:27.966Z,7.90
2018-01-26T23:01:55.431Z,8.00
2018-01-26T23:04:22.910Z,8.10
2018-01-26T23:06:50.459Z,8.10
2018-01-26T23:09:17.947Z,8.10
2018-01-26T23:11:46.227Z,7.90
2018-01-26T23:14:14.170Z,7.90
2018-01-26T23:16:42.248Z,8.00
2018-01-26T23:19:09.760Z,7.80
2018-01-26T23:21:37.224Z,7.70
2018-01-26T23:24:04.704Z,7.80
2018-01-26T23:26:32.172Z,7.70
2018-01-26T23:28:59.747Z,7.80
2018-01-26T23:31:27.967Z,7.80
2018-01-26T23:33:55.460Z,7.80
2018-01-26T23:36:22.927Z,7.80
2018-01-26T23:38:50.394Z,7.80
2018-01-26T23:41:18.635Z,7.80
2018-01-26T23:43:46.229Z,7.80
2018-01-26T23:46:13.664Z,7.70
2018-01-26T23:48:41.421Z,7.70
2018-01-26T23:51:08.931Z,7.70
2018-01-26T23:53:36.400Z,7.70
2018-01-26T23:56:03.881Z,7.70
2018-01-26T23:58:31.396Z,7.70
